Hauptseite
METAR-TAF:

METAR-TAF

Flughäfen :

Monte Malanotte

Prato Nevoso, Italien

Breite: 44-15N, Länge: 007-48E, Höhe: 1741 m

Beobachtung

Neuester Wetterbericht von vor 10 Stunden und 49 Minuten, um 17:55 UTC
Wind 1 kt aus unterschiedlichen Richtungen
Temperatur 12°C
Luftfeuchtigkeit 50%
Luftdruck 1029 hPa
Sichtweite: 7000 m

METAR: LIMY 161755Z VRB01KT 7000 NSC 12/02 Q1029 RMK SKC VAL FOSCHIA SKC SUP VIS MIN 7000

Zeit: 05:44 (04:44 UTC)


TAF: fehlend

Wetterbeobachtungen und Prognosen von mehr als 4000 Flughäfen (METAR und TAF Bericht).

Die verfügbaren Stationen werden durch gelbe und rote Markierungen auf der Karte dargestellt.

Führen Sie die Maus auf sie, um den Namen der Station zu sehen.

Darauf klicken, um die Beobachtung von Wetterbeobachtungen und Prognosen zu sehen.

Um die Karte zu ändern : klicken Sie auf den grünen Tasten mit einem schwarzen Kreuz Zum Vergrößern, auf den grünen Button mit einem Gedankenstrich zu verkleinern, oder auf die grünen Pfeile für benachbarte Karten.


METAR-TAF: